Time;durP1;ratioP1;P1;durP2;ratioP2;P2;SDS_P1;SDS_P2;PMS_P1;PMS_P2;Temp;Humidity;BMP_temperature;BMP_pressure;BME280_temperature;BME280_humidity;BME280_pressure;Samples;Min_cycle;Max_cycle;Signal;HPM_P1;HPM_P2
2022/01/18 00:01:53;;;;;;;8.70;4.70;;;10.30;99.90;;;;;;5031828;28;20278;-67
2022/01/18 00:04:20;;;;;;;8.17;4.30;;;10.20;99.90;;;;;;5033416;28;20964;-67
2022/01/18 00:06:52;;;;;;;10.40;4.13;;;10.30;99.90;;;;;;5035332;28;20489;-68
2022/01/18 00:09:21;;;;;;;8.80;4.50;;;10.20;99.90;;;;;;5052386;28;20465;-67
2022/01/18 00:12:13;;;;;;;5.60;3.60;;;10.20;99.90;;;;;;5051213;28;20700;-68
2022/01/18 00:14:42;;;;;;;12.57;5.47;;;10.30;99.90;;;;;;5015809;28;20444;-68
2022/01/18 00:17:29;;;;;;;8.33;4.83;;;10.30;99.90;;;;;;5032299;28;20471;-67
2022/01/18 00:19:56;;;;;;;14.53;5.30;;;10.30;99.90;;;;;;5031743;28;20407;-67
2022/01/18 00:22:24;;;;;;;8.23;5.00;;;10.30;99.90;;;;;;5032314;28;20472;-67
2022/01/18 00:24:51;;;;;;;9.63;5.40;;;10.30;99.90;;;;;;5031384;28;20452;-67
2022/01/18 00:27:18;;;;;;;8.63;5.27;;;10.20;99.90;;;;;;5014455;28;20429;-67
2022/01/18 00:30:09;;;;;;;11.23;5.70;;;10.30;99.90;;;;;;5031278;28;20436;-68
2022/01/18 00:32:45;;;;;;;10.47;5.00;;;10.30;99.90;;;;;;5030747;28;20427;-68
2022/01/18 00:35:11;;;;;;;5.73;5.10;;;10.30;99.90;;;;;;5032075;28;20465;-67
2022/01/18 00:37:40;;;;;;;11.07;4.57;;;10.30;99.90;;;;;;5031040;28;20913;-68
2022/01/18 00:40:07;;;;;;;14.07;5.20;;;10.30;99.90;;;;;;5014278;28;20186;-67
2022/01/18 00:42:33;;;;;;;5.53;4.10;;;10.30;99.90;;;;;;5035671;28;20462;-69
2022/01/18 00:44:59;;;;;;;6.17;4.40;;;10.30;99.90;;;;;;5038145;28;20451;-67
2022/01/18 00:47:25;;;;;;;11.60;5.20;;;10.30;99.90;;;;;;5055869;28;20450;-67
2022/01/18 00:49:59;;;;;;;5.97;5.23;;;10.30;99.90;;;;;;5055042;28;20465;-67
2022/01/18 00:52:26;;;;;;;8.40;4.93;;;10.30;99.90;;;;;;5038065;28;20199;-68
2022/01/18 00:54:52;;;;;;;13.67;5.40;;;10.30;99.90;;;;;;5032555;28;20449;-67
2022/01/18 00:57:18;;;;;;;9.80;4.87;;;10.30;99.90;;;;;;5035822;28;20466;-67
2022/01/18 00:59:46;;;;;;;8.97;4.43;;;10.30;99.90;;;;;;5033461;28;20472;-68
2022/01/18 01:02:12;;;;;;;9.50;5.03;;;10.30;99.90;;;;;;5035632;28;20263;-67
2022/01/18 01:04:43;;;;;;;6.80;4.90;;;10.30;99.90;;;;;;5034924;28;20451;-67
2022/01/18 01:07:09;;;;;;;8.33;4.77;;;10.30;99.90;;;;;;5035958;28;20184;-67
2022/01/18 01:09:34;;;;;;;7.70;4.20;;;10.30;99.90;;;;;;5034411;28;20859;-68
2022/01/18 01:12:01;;;;;;;9.00;4.53;;;10.30;99.90;;;;;;5035531;28;20185;-67
2022/01/18 01:14:29;;;;;;;11.83;4.37;;;10.30;99.90;;;;;;5035054;28;20189;-67
2022/01/18 01:17:25;;;;;;;8.00;4.27;;;10.30;99.90;;;;;;5019407;28;20457;-68
2022/01/18 01:44:18;;;;;;;12.57;4.70;;;10.30;99.90;;;;;;5034620;28;20408;-68
2022/01/18 01:46:45;;;;;;;9.27;4.53;;;10.40;99.90;;;;;;5016624;28;20412;-68
2022/01/18 01:49:13;;;;;;;8.50;4.83;;;10.40;99.90;;;;;;5034487;28;20453;-68
2022/01/18 01:51:40;;;;;;;12.67;5.37;;;10.40;99.90;;;;;;5034093;28;20435;-69
2022/01/18 01:54:09;;;;;;;16.97;5.00;;;10.40;99.90;;;;;;5000147;28;20428;-68
2022/01/18 01:56:35;;;;;;;9.27;4.70;;;10.30;99.90;;;;;;5033997;28;20425;-69
2022/01/18 01:59:03;;;;;;;12.10;5.27;;;10.40;99.90;;;;;;5034148;28;20514;-68
2022/01/18 02:01:39;;;;;;;13.17;5.00;;;10.30;99.90;;;;;;5034506;28;20454;-68
2022/01/18 02:04:04;;;;;;;12.73;4.93;;;10.30;99.90;;;;;;5034747;28;20404;-69
2022/01/18 02:06:30;;;;;;;8.03;5.13;;;10.30;99.90;;;;;;5033894;28;20435;-68
2022/01/18 02:08:56;;;;;;;10.20;4.87;;;10.30;99.90;;;;;;5033951;28;20174;-68
2022/01/18 02:11:21;;;;;;;8.30;4.80;;;10.30;99.90;;;;;;5032713;28;20182;-68
2022/01/18 02:13:49;;;;;;;14.77;5.67;;;10.30;99.90;;;;;;5032999;28;20220;-68
2022/01/18 02:21:45;;;;;;;12.37;5.33;;;10.30;99.90;;;;;;5016780;28;20178;-68
2022/01/18 02:21:48;;;;;;;9.53;3.90;;;10.30;99.90;;;;;;5032965;28;20483;-68
2022/01/18 02:24:18;;;;;;;9.87;4.03;;;10.20;99.90;;;;;;5033719;28;20436;-68
2022/01/18 02:26:44;;;;;;;6.83;4.13;;;10.20;99.90;;;;;;5033100;28;20530;-68
2022/01/18 02:29:10;;;;;;;8.10;3.60;;;10.20;99.90;;;;;;5034380;28;20509;-68
2022/01/18 02:31:37;;;;;;;9.57;4.57;;;10.20;99.90;;;;;;5033401;28;20194;-69
2022/01/18 02:34:10;;;;;;;7.30;4.00;;;10.20;99.90;;;;;;5033581;28;20431;-68
2022/01/18 02:36:36;;;;;;;11.37;5.30;;;10.20;99.90;;;;;;5033786;28;20764;-69
2022/01/18 02:39:02;;;;;;;4.23;3.43;;;10.20;99.90;;;;;;5032104;28;20431;-68
2022/01/18 02:41:30;;;;;;;10.10;4.10;;;10.20;99.90;;;;;;5033953;28;20462;-68
2022/01/18 02:44:05;;;;;;;7.77;4.27;;;10.20;99.90;;;;;;5033462;28;20498;-69
2022/01/18 02:46:31;;;;;;;4.77;3.97;;;10.20;99.90;;;;;;5033751;28;20507;-68
2022/01/18 02:48:58;;;;;;;10.87;4.03;;;10.20;99.90;;;;;;5032907;28;20521;-69
2022/01/18 02:51:24;;;;;;;9.03;5.20;;;10.10;99.90;;;;;;5033793;28;20798;-68
2022/01/18 02:54:02;;;;;;;8.07;5.20;;;10.20;99.90;;;;;;5032572;28;20420;-69
2022/01/18 02:56:55;;;;;;;11.60;4.50;;;10.10;99.90;;;;;;5033482;28;20418;-68
2022/01/18 02:59:36;;;;;;;10.00;4.60;;;10.10;99.90;;;;;;5033274;28;20408;-68
2022/01/18 03:05:02;;;;;;;9.53;5.07;;;10.20;99.90;;;;;;5032182;28;20496;-69
2022/01/18 03:07:28;;;;;;;9.37;4.70;;;10.10;99.90;;;;;;5033573;28;20424;-69
2022/01/18 03:09:53;;;;;;;7.63;3.83;;;10.20;99.90;;;;;;5032481;28;20953;-68
2022/01/18 03:12:19;;;;;;;11.30;5.13;;;10.10;99.90;;;;;;5040228;28;20188;-68
2022/01/18 03:14:45;;;;;;;6.77;3.90;;;10.10;99.90;;;;;;5001825;28;20271;-69
2022/01/18 03:17:10;;;;;;;8.10;5.10;;;10.10;99.90;;;;;;5053108;28;20581;-68
2022/01/18 03:19:36;;;;;;;11.83;4.93;;;10.10;99.90;;;;;;5052872;28;20212;-68
2022/01/18 03:22:03;;;;;;;8.40;4.80;;;10.10;99.90;;;;;;5052113;28;20293;-68
2022/01/18 03:29:40;;;;;;;6.80;5.07;;;10.10;99.90;;;;;;5032669;28;20199;-69
2022/01/18 03:32:06;;;;;;;9.00;6.17;;;10.10;99.90;;;;;;5032563;28;20424;-68
2022/01/18 03:34:33;;;;;;;10.20;5.27;;;10.10;99.90;;;;;;5032604;28;20436;-68
2022/01/18 03:36:59;;;;;;;9.43;4.97;;;10.10;99.90;;;;;;5032042;28;20984;-69
2022/01/18 03:39:24;;;;;;;6.10;4.50;;;10.10;99.90;;;;;;5032514;28;20504;-68
2022/01/18 03:41:54;;;;;;;13.63;5.47;;;10.10;99.90;;;;;;5033837;28;20210;-68
2022/01/18 03:44:22;;;;;;;10.20;5.10;;;10.00;99.90;;;;;;5052606;28;20177;-68
2022/01/18 03:46:49;;;;;;;8.17;5.70;;;10.10;99.90;;;;;;5051766;28;20510;-68
2022/01/18 03:49:15;;;;;;;11.43;5.60;;;10.00;99.90;;;;;;5052662;28;20980;-68
2022/01/18 03:51:41;;;;;;;7.80;5.10;;;10.00;99.90;;;;;;5051832;28;20448;-70
2022/01/18 03:54:07;;;;;;;8.93;5.40;;;10.10;99.90;;;;;;5052551;28;20182;-68
2022/01/18 03:56:32;;;;;;;13.83;7.17;;;10.00;99.90;;;;;;5033354;28;20239;-69
2022/01/18 03:58:58;;;;;;;9.63;5.57;;;10.00;99.90;;;;;;5013845;28;20179;-69
2022/01/18 04:01:24;;;;;;;7.63;5.60;;;10.00;99.90;;;;;;5014828;28;20567;-68
2022/01/18 04:03:49;;;;;;;8.27;5.60;;;10.00;99.90;;;;;;5031320;28;20187;-69
2022/01/18 04:06:15;;;;;;;13.87;6.60;;;10.10;99.90;;;;;;5031934;28;20184;-68
2022/01/18 04:08:41;;;;;;;15.37;6.90;;;10.10;99.90;;;;;;5031577;28;20190;-69
2022/01/18 04:11:06;;;;;;;11.80;6.70;;;10.10;99.90;;;;;;5031759;28;20614;-69
2022/01/18 04:13:32;;;;;;;9.93;5.73;;;10.10;99.90;;;;;;5032198;28;20260;-68
2022/01/18 04:15:58;;;;;;;11.83;6.00;;;10.10;99.90;;;;;;4997206;28;20625;-69
2022/01/18 04:18:48;;;;;;;15.77;7.47;;;10.20;99.90;;;;;;5031922;28;20188;-68
2022/01/18 04:29:03;;;;;;;12.80;7.93;;;10.20;99.90;;;;;;5030823;28;20434;-69
2022/01/18 04:31:30;;;;;;;15.07;8.50;;;10.20;99.90;;;;;;5044176;28;20619;-68
2022/01/18 04:33:56;;;;;;;13.87;8.30;;;10.20;99.90;;;;;;5033453;28;20201;-68
2022/01/18 04:36:24;;;;;;;18.47;8.83;;;10.20;99.90;;;;;;5052249;28;20527;-68
2022/01/18 04:38:49;;;;;;;17.17;9.53;;;10.20;99.90;;;;;;5051244;28;20419;-69
2022/01/18 04:41:18;;;;;;;12.43;8.50;;;10.10;99.90;;;;;;5051852;28;20821;-68
2022/01/18 04:49:04;;;;;;;19.27;11.23;;;10.10;99.90;;;;;;5030929;28;20412;-68
2022/01/18 04:51:30;;;;;;;16.80;10.40;;;10.10;99.90;;;;;;5031748;28;20905;-69
2022/01/18 04:53:58;;;;;;;17.60;11.10;;;10.10;99.90;;;;;;5031332;28;20481;-69
2022/01/18 04:59:05;;;;;;;19.13;11.60;;;10.10;99.90;;;;;;5030901;28;20915;-68
2022/01/18 05:01:31;;;;;;;15.23;11.63;;;10.10;99.90;;;;;;5032037;28;20463;-68
2022/01/18 05:03:57;;;;;;;25.13;13.77;;;10.20;99.90;;;;;;5031267;28;20427;-68
2022/01/18 05:06:23;;;;;;;22.17;13.37;;;10.10;99.90;;;;;;5031742;28;20966;-68
2022/01/18 05:08:49;;;;;;;22.40;13.90;;;10.10;99.90;;;;;;5030778;28;20421;-69
2022/01/18 05:11:18;;;;;;;22.30;14.53;;;10.10;99.90;;;;;;5031573;28;20506;-68
2022/01/18 05:21:33;;;;;;;24.80;14.10;;;10.20;99.90;;;;;;5051327;28;20909;-68
2022/01/18 05:23:59;;;;;;;18.27;12.50;;;10.10;99.90;;;;;;5050940;28;20412;-68
2022/01/18 05:26:27;;;;;;;15.60;11.60;;;10.20;99.90;;;;;;5051535;28;20411;-69
2022/01/18 05:28:53;;;;;;;20.07;10.47;;;10.10;99.90;;;;;;5052403;28;20414;-68
2022/01/18 05:31:19;;;;;;;18.53;10.17;;;10.10;99.90;;;;;;5046148;28;20939;-69
2022/01/18 05:33:47;;;;;;;15.43;10.13;;;10.10;99.90;;;;;;5035145;28;20416;-69
2022/01/18 05:36:13;;;;;;;14.43;9.00;;;10.10;99.90;;;;;;5034500;28;20180;-69
2022/01/18 05:38:39;;;;;;;14.63;9.77;;;10.10;99.90;;;;;;5034794;28;20975;-70
2022/01/18 05:41:07;;;;;;;13.40;7.60;;;10.10;99.90;;;;;;5033867;28;20955;-69
2022/01/18 05:43:34;;;;;;;13.73;7.97;;;10.10;99.90;;;;;;5034975;28;20419;-69
2022/01/18 05:45:59;;;;;;;13.80;7.67;;;10.10;99.90;;;;;;5037411;28;20430;-69
2022/01/18 05:48:26;;;;;;;11.70;8.10;;;10.20;99.90;;;;;;5034919;28;20417;-69
2022/01/18 05:50:54;;;;;;;16.17;9.10;;;10.30;99.90;;;;;;5040411;28;20435;-69
2022/01/18 05:53:20;;;;;;;9.87;7.10;;;10.30;99.90;;;;;;5040484;28;20433;-69
2022/01/18 05:55:46;;;;;;;14.17;8.30;;;10.40;99.90;;;;;;5043178;28;20445;-69
2022/01/18 05:58:12;;;;;;;10.10;6.17;;;10.40;99.90;;;;;;5053001;28;20420;-69
2022/01/18 06:00:40;;;;;;;12.73;7.07;;;10.50;99.90;;;;;;5039781;28;20434;-69
2022/01/18 06:03:14;;;;;;;10.07;6.67;;;10.60;99.90;;;;;;5034881;28;20181;-68
2022/01/18 06:08:25;;;;;;;15.27;8.87;;;10.40;99.90;;;;;;5046372;28;20411;-69
2022/01/18 06:10:51;;;;;;;14.70;8.90;;;10.40;99.90;;;;;;5039852;28;20430;-71
2022/01/18 06:13:17;;;;;;;11.20;6.97;;;10.40;99.90;;;;;;5041952;28;20960;-68
2022/01/18 06:15:43;;;;;;;12.53;6.80;;;10.30;99.90;;;;;;5036787;28;20231;-68
2022/01/18 06:18:10;;;;;;;14.17;6.50;;;10.30;99.90;;;;;;5033201;28;20979;-69
2022/01/18 06:20:36;;;;;;;14.03;7.93;;;10.30;99.90;;;;;;5034171;28;20466;-69
2022/01/18 06:23:02;;;;;;;14.63;8.17;;;10.40;99.90;;;;;;5034371;28;20422;-69
2022/01/18 06:25:28;;;;;;;14.80;8.63;;;10.30;99.90;;;;;;5034475;28;20794;-69
2022/01/18 06:27:53;;;;;;;15.77;8.97;;;10.30;99.90;;;;;;5033926;28;20416;-69
2022/01/18 06:30:20;;;;;;;13.20;9.57;;;10.30;99.90;;;;;;5034769;28;20749;-69
2022/01/18 06:32:46;;;;;;;20.23;9.40;;;10.30;99.90;;;;;;5034403;28;20523;-68
2022/01/18 06:35:13;;;;;;;17.80;9.33;;;10.30;99.90;;;;;;5034592;28;20415;-69
2022/01/18 06:37:40;;;;;;;20.57;10.40;;;10.30;99.90;;;;;;5044229;28;20458;-68
2022/01/18 06:40:08;;;;;;;21.80;10.33;;;10.30;99.90;;;;;;5035610;28;20461;-69
2022/01/18 06:42:34;;;;;;;14.85;9.70;;;10.30;99.90;;;;;;5043787;28;20460;-69
2022/01/18 06:45:00;;;;;;;15.07;10.47;;;10.30;99.90;;;;;;5043075;28;20189;-72
2022/01/18 06:47:26;;;;;;;20.80;10.63;;;10.30;99.90;;;;;;5053691;28;20175;-69
2022/01/18 06:49:53;;;;;;;16.10;10.40;;;10.30;99.90;;;;;;5053047;28;20429;-73
2022/01/18 06:52:18;;;;;;;19.93;11.53;;;10.30;99.90;;;;;;5053379;28;20420;-73
2022/01/18 06:54:44;;;;;;;17.97;11.50;;;10.30;99.90;;;;;;5052331;28;20425;-71
2022/01/18 06:57:10;;;;;;;21.00;12.90;;;10.30;99.90;;;;;;5037431;28;20639;-74
2022/01/18 06:59:36;;;;;;;19.30;11.03;;;10.30;99.90;;;;;;5034670;28;20901;-71
2022/01/18 07:02:03;;;;;;;20.90;12.57;;;10.20;99.90;;;;;;5032195;28;20212;-71
2022/01/18 07:04:29;;;;;;;17.63;10.83;;;10.20;99.90;;;;;;5033549;28;20178;-71
2022/01/18 07:06:55;;;;;;;17.97;12.30;;;10.00;99.90;;;;;;5032641;28;20926;-72
2022/01/18 07:09:23;;;;;;;23.20;11.80;;;10.20;99.90;;;;;;5038217;28;20607;-71
2022/01/18 07:11:53;;;;;;;22.83;14.77;;;10.20;99.90;;;;;;5053312;28;20416;-72
2022/01/18 07:14:19;;;;;;;19.90;11.97;;;10.20;99.90;;;;;;5035163;28;20418;-73
2022/01/18 07:16:45;;;;;;;22.70;12.73;;;10.30;99.90;;;;;;5053164;28;20416;-73
2022/01/18 07:19:11;;;;;;;19.33;11.77;;;10.20;99.90;;;;;;5030611;28;20428;-71
2022/01/18 07:21:36;;;;;;;24.60;13.43;;;10.30;99.90;;;;;;5032316;28;20703;-70
2022/01/18 07:24:16;;;;;;;18.17;12.63;;;10.20;99.90;;;;;;5048061;28;20185;-71
2022/01/18 07:26:42;;;;;;;18.73;11.33;;;10.30;99.90;;;;;;5034299;28;20201;-71
2022/01/18 07:29:08;;;;;;;18.47;12.43;;;10.20;99.90;;;;;;5032200;28;20420;-71
2022/01/18 07:31:33;;;;;;;18.93;12.43;;;10.30;99.90;;;;;;5032763;28;20424;-71
2022/01/18 07:33:59;;;;;;;19.40;11.53;;;10.30;99.90;;;;;;5032110;28;20189;-72
2022/01/18 07:36:25;;;;;;;19.33;11.57;;;10.40;99.90;;;;;;5032402;28;20183;-73
2022/01/18 07:38:51;;;;;;;17.83;11.50;;;10.30;99.90;;;;;;5032760;28;20906;-73
2022/01/18 07:41:16;;;;;;;17.30;11.87;;;10.30;99.90;;;;;;5037343;28;20244;-73
2022/01/18 07:43:42;;;;;;;17.10;12.87;;;10.30;99.90;;;;;;5052805;28;20183;-75
2022/01/18 07:46:08;;;;;;;16.27;11.70;;;10.30;99.90;;;;;;5033682;28;20414;-74
2022/01/18 07:48:34;;;;;;;16.83;13.80;;;10.30;99.90;;;;;;5052630;28;20183;-74
2022/01/18 07:51:00;;;;;;;18.13;15.30;;;10.70;99.90;;;;;;5050489;28;20652;-74
2022/01/18 07:53:26;;;;;;;15.83;11.83;;;11.10;99.90;;;;;;5052750;28;20506;-73
2022/01/18 07:55:53;;;;;;;16.83;13.37;;;11.50;99.90;;;;;;5034752;28;20184;-73
2022/01/18 07:58:19;;;;;;;14.80;12.33;;;11.80;99.90;;;;;;5052678;28;20405;-73
2022/01/18 08:00:47;;;;;;;19.83;10.77;;;12.10;99.90;;;;;;5051337;28;20494;-74
2022/01/18 08:03:13;;;;;;;19.53;11.90;;;12.50;99.90;;;;;;5032185;28;20512;-73
2022/01/18 08:05:39;;;;;;;17.93;12.70;;;12.70;99.90;;;;;;5032748;28;20398;-74
2022/01/18 08:08:05;;;;;;;19.80;13.03;;;12.90;99.90;;;;;;5032565;28;20467;-74
2022/01/18 08:10:32;;;;;;;16.33;13.30;;;13.10;99.90;;;;;;5032788;28;20477;-73
2022/01/18 08:13:01;;;;;;;15.60;13.40;;;13.30;99.90;;;;;;5034047;28;20438;-73
2022/01/18 08:15:38;;;;;;;20.47;12.37;;;13.40;99.90;;;;;;5033155;28;20464;-73
2022/01/18 08:18:12;;;;;;;13.80;12.20;;;13.60;99.90;;;;;;5032131;28;20789;-73
2022/01/18 08:20:38;;;;;;;16.30;11.47;;;13.60;99.90;;;;;;5032224;28;20488;-73
2022/01/18 08:23:04;;;;;;;16.90;11.83;;;13.70;99.90;;;;;;5031540;28;20412;-74
2022/01/18 08:25:30;;;;;;;16.40;13.10;;;13.80;99.90;;;;;;5032345;28;20442;-74
2022/01/18 08:27:57;;;;;;;16.60;12.23;;;13.80;99.90;;;;;;5033517;28;20451;-74
2022/01/18 08:30:24;;;;;;;16.43;12.90;;;13.90;99.30;;;;;;5050230;28;20468;-72
2022/01/18 08:32:54;;;;;;;19.00;13.50;;;13.90;99.90;;;;;;5038184;28;20487;-73
2022/01/18 08:35:20;;;;;;;16.10;13.30;;;13.90;98.50;;;;;;5029642;28;20929;-72
2022/01/18 08:37:46;;;;;;;20.57;14.17;;;13.50;98.50;;;;;;5043411;28;20427;-73
2022/01/18 08:40:12;;;;;;;21.20;14.10;;;13.40;98.30;;;;;;5043439;28;21052;-73
2022/01/18 08:42:38;;;;;;;19.30;14.40;;;13.10;98.40;;;;;;5051834;28;20240;-73
2022/01/18 08:45:06;;;;;;;23.13;13.43;;;12.80;99.00;;;;;;5038370;28;20492;-73
2022/01/18 08:47:32;;;;;;;19.50;14.53;;;12.60;99.60;;;;;;5049280;28;20194;-73
2022/01/18 08:49:58;;;;;;;21.10;15.20;;;12.40;99.90;;;;;;5046519;28;20916;-74
2022/01/18 08:52:23;;;;;;;20.97;15.17;;;12.20;99.90;;;;;;5052356;28;20191;-73
2022/01/18 08:54:49;;;;;;;26.23;13.97;;;12.00;99.90;;;;;;5047542;28;20182;-73
2022/01/18 08:57:15;;;;;;;23.97;14.53;;;11.90;99.90;;;;;;5032385;28;20210;-72
2022/01/18 08:59:43;;;;;;;25.73;13.40;;;11.70;99.90;;;;;;5047315;28;20209;-73
2022/01/18 09:02:10;;;;;;;21.10;13.93;;;11.50;99.90;;;;;;5033462;28;20467;-73
2022/01/18 09:04:36;;;;;;;23.27;14.40;;;11.40;99.90;;;;;;5035020;28;20430;-73
2022/01/18 09:07:08;;;;;;;24.40;13.70;;;11.30;99.90;;;;;;5052309;28;20507;-73
2022/01/18 09:09:39;;;;;;;20.20;15.50;;;11.30;99.90;;;;;;5047049;28;20431;-73
2022/01/18 09:12:07;;;;;;;29.30;13.27;;;11.20;99.90;;;;;;5035035;28;20907;-73
2022/01/18 09:14:33;;;;;;;25.57;16.00;;;11.10;99.90;;;;;;5004968;28;20427;-73
2022/01/18 09:16:59;;;;;;;24.53;13.67;;;11.00;99.90;;;;;;5055096;28;20409;-73
2022/01/18 09:19:25;;;;;;;21.87;14.77;;;11.00;99.90;;;;;;5055826;28;20169;-73
2022/01/18 09:21:50;;;;;;;21.47;13.90;;;10.90;99.90;;;;;;5055615;28;20233;-73
2022/01/18 09:24:19;;;;;;;24.07;14.33;;;10.90;99.90;;;;;;5054036;28;20496;-73
2022/01/18 09:26:45;;;;;;;23.90;15.20;;;10.90;99.90;;;;;;5038534;28;20239;-73
2022/01/18 09:29:12;;;;;;;26.03;14.80;;;10.80;99.90;;;;;;5054272;28;20791;-73
2022/01/18 09:31:44;;;;;;;23.87;13.93;;;10.80;99.90;;;;;;5037042;28;20178;-73
2022/01/18 09:34:11;;;;;;;24.63;15.10;;;10.80;99.90;;;;;;5041132;28;20435;-73
2022/01/18 09:36:36;;;;;;;22.90;13.50;;;10.80;99.90;;;;;;5022617;28;20400;-73
2022/01/18 09:39:04;;;;;;;24.50;14.60;;;10.80;99.90;;;;;;5034361;28;20424;-74
2022/01/18 09:41:34;;;;;;;25.37;15.00;;;10.80;99.90;;;;;;5034241;28;20547;-73
2022/01/18 09:43:59;;;;;;;21.20;14.83;;;10.80;99.90;;;;;;5016104;28;20478;-73
2022/01/18 09:46:26;;;;;;;23.33;15.27;;;10.80;99.90;;;;;;5034040;28;20436;-72
2022/01/18 09:48:56;;;;;;;17.33;13.00;;;10.80;99.90;;;;;;5049775;28;20180;-73
2022/01/18 09:51:23;;;;;;;19.90;13.13;;;10.80;99.90;;;;;;5047009;28;20432;-72
2022/01/18 09:53:49;;;;;;;18.13;13.70;;;10.80;99.90;;;;;;5054508;28;20434;-73
2022/01/18 09:56:15;;;;;;;22.83;15.03;;;10.80;99.90;;;;;;5054415;28;20780;-73
2022/01/18 09:58:41;;;;;;;18.90;12.83;;;10.80;99.90;;;;;;5054979;28;20498;-73
2022/01/18 10:01:07;;;;;;;20.70;13.50;;;10.80;99.90;;;;;;5052157;28;20464;-73
2022/01/18 10:03:34;;;;;;;18.00;14.27;;;10.90;99.90;;;;;;5037178;28;20462;-73
2022/01/18 10:06:05;;;;;;;23.20;13.60;;;10.90;99.90;;;;;;5037739;28;20183;-74
2022/01/18 10:08:31;;;;;;;20.63;14.20;;;10.90;99.90;;;;;;5053771;28;20487;-73
2022/01/18 10:10:59;;;;;;;24.17;13.73;;;10.80;99.90;;;;;;5053866;28;20977;-73
2022/01/18 10:13:33;;;;;;;24.03;15.70;;;10.90;99.90;;;;;;5053553;28;20866;-73
2022/01/18 10:16:00;;;;;;;19.77;15.03;;;10.80;99.90;;;;;;5053054;28;20418;-74
2022/01/18 10:18:46;;;;;;;20.90;13.67;;;10.90;99.90;;;;;;5048661;28;20441;-73
2022/01/18 10:21:35;;;;;;;29.80;15.10;;;10.90;99.90;;;;;;5033195;28;20483;-73
2022/01/18 10:24:54;;;;;;;21.23;13.77;;;10.80;99.90;;;;;;5040697;28;20428;-73
2022/01/18 10:27:20;;;;;;;19.97;13.27;;;10.80;99.90;;;;;;5011377;28;20447;-73
2022/01/18 10:29:50;;;;;;;21.70;12.80;;;10.90;99.90;;;;;;5038042;28;20433;-73
2022/01/18 10:37:25;;;;;;;23.00;12.73;;;10.80;99.90;;;;;;5034672;28;20876;-73
2022/01/18 10:40:12;;;;;;;27.33;13.60;;;10.80;99.90;;;;;;5038989;28;20449;-73
2022/01/18 10:42:52;;;;;;;17.60;11.07;;;10.80;99.90;;;;;;5040485;28;20458;-73
2022/01/18 10:45:33;;;;;;;18.20;12.50;;;10.80;99.90;;;;;;5037196;28;20423;-73
2022/01/18 10:48:11;;;;;;;25.97;13.53;;;10.90;99.90;;;;;;5042430;28;20891;-73
2022/01/18 10:50:41;;;;;;;17.77;11.80;;;10.90;99.90;;;;;;5033515;28;20790;-72
2022/01/18 10:53:33;;;;;;;22.50;13.00;;;10.90;99.90;;;;;;5032664;28;20421;-73
2022/01/18 10:56:17;;;;;;;22.80;14.53;;;11.00;99.90;;;;;;5040098;28;20682;-74
2022/01/18 10:58:52;;;;;;;20.17;12.60;;;10.90;99.90;;;;;;5016003;28;20910;-72
2022/01/18 11:01:20;;;;;;;20.00;12.30;;;10.90;99.90;;;;;;5015115;28;20491;-72
2022/01/18 11:04:05;;;;;;;19.80;11.30;;;11.00;99.90;;;;;;5037958;28;20762;-72
2022/01/18 11:06:31;;;;;;;17.27;12.80;;;11.00;99.90;;;;;;5033065;28;20852;-72
2022/01/18 11:09:14;;;;;;;19.87;12.70;;;11.00;99.90;;;;;;5042106;28;20454;-72
2022/01/18 11:11:45;;;;;;;17.83;11.73;;;11.00;99.90;;;;;;5038387;28;20584;-72
2022/01/18 11:14:13;;;;;;;24.37;12.47;;;11.00;99.90;;;;;;5039057;28;20850;-73
2022/01/18 11:16:43;;;;;;;24.90;12.00;;;11.00;99.90;;;;;;5046455;28;20455;-72
2022/01/18 11:19:28;;;;;;;19.53;12.30;;;11.00;99.90;;;;;;5034558;28;20442;-72
2022/01/18 11:22:00;;;;;;;19.73;14.90;;;11.00;99.90;;;;;;5033082;28;20511;-72
2022/01/18 11:24:28;;;;;;;25.53;12.67;;;11.10;99.90;;;;;;5032903;28;20402;-72
2022/01/18 11:26:54;;;;;;;20.30;14.30;;;11.10;99.90;;;;;;5035113;28;20424;-72
2022/01/18 11:29:21;;;;;;;24.43;12.53;;;11.10;99.90;;;;;;5040093;28;20962;-72
2022/01/18 11:31:52;;;;;;;17.40;11.30;;;11.10;99.90;;;;;;5053166;28;20435;-72
2022/01/18 11:34:46;;;;;;;22.20;15.70;;;11.10;99.90;;;;;;5034907;28;20392;-72
2022/01/18 11:37:20;;;;;;;16.63;12.97;;;11.10;99.90;;;;;;5026612;28;20457;-72
2022/01/18 11:39:45;;;;;;;20.97;11.50;;;11.20;99.90;;;;;;5015668;28;20837;-72
2022/01/18 11:42:13;;;;;;;18.80;11.90;;;11.20;99.90;;;;;;5031834;28;20483;-72
2022/01/18 11:44:40;;;;;;;19.70;11.77;;;11.30;99.90;;;;;;5015387;28;20653;-72
2022/01/18 11:47:08;;;;;;;23.80;14.07;;;11.30;99.90;;;;;;5044726;28;20443;-72
2022/01/18 11:49:34;;;;;;;18.57;12.43;;;11.30;99.90;;;;;;5034714;28;20507;-73
2022/01/18 11:52:10;;;;;;;17.33;14.20;;;11.30;99.90;;;;;;5052182;28;20475;-73
2022/01/18 11:54:55;;;;;;;26.33;13.67;;;11.30;99.90;;;;;;5052991;28;20883;-72
2022/01/18 11:57:23;;;;;;;22.37;13.37;;;11.30;99.90;;;;;;5046771;28;20420;-72
2022/01/18 11:59:56;;;;;;;16.43;11.83;;;11.30;99.90;;;;;;5032289;28;20447;-72
2022/01/18 12:02:30;;;;;;;20.90;11.30;;;11.40;99.90;;;;;;5031760;28;20468;-72
2022/01/18 12:04:59;;;;;;;23.90;14.77;;;11.40;99.90;;;;;;5032605;28;20419;-72
2022/01/18 12:07:33;;;;;;;19.00;12.57;;;11.40;99.90;;;;;;5031684;28;20510;-72
2022/01/18 12:10:08;;;;;;;19.67;12.67;;;11.40;99.90;;;;;;5032386;28;20425;-72
2022/01/18 12:12:40;;;;;;;22.60;11.40;;;11.40;99.90;;;;;;5032852;28;20409;-72
2022/01/18 12:15:24;;;;;;;15.60;11.17;;;11.50;99.90;;;;;;5032067;28;20422;-72
2022/01/18 12:18:14;;;;;;;16.50;10.47;;;11.50;99.90;;;;;;5032753;28;20462;-72
2022/01/18 12:20:44;;;;;;;13.37;10.30;;;11.50;99.90;;;;;;5033335;28;20467;-72
2022/01/18 12:23:12;;;;;;;16.43;10.70;;;11.50;99.90;;;;;;5051872;28;20425;-72
2022/01/18 12:25:59;;;;;;;13.83;10.43;;;11.50;99.90;;;;;;5052010;28;20726;-72
2022/01/18 12:34:35;;;;;;;16.17;10.20;;;11.60;99.90;;;;;;5049521;28;20420;-73
2022/01/18 12:37:07;;;;;;;19.40;12.00;;;11.60;99.90;;;;;;5024810;28;20413;-72
2022/01/18 12:39:51;;;;;;;12.93;11.07;;;11.70;99.90;;;;;;5035758;28;20505;-72
2022/01/18 12:45:23;;;;;;;12.53;9.17;;;11.70;99.90;;;;;;5025140;28;20436;-73
2022/01/18 12:47:54;;;;;;;12.50;8.30;;;11.80;99.90;;;;;;5026239;28;20425;-72
2022/01/18 12:50:23;;;;;;;12.53;8.83;;;11.80;99.90;;;;;;5036514;28;20455;-72
2022/01/18 12:53:13;;;;;;;13.87;9.43;;;11.90;99.90;;;;;;5036097;28;20421;-72
2022/01/18 12:55:46;;;;;;;14.67;8.40;;;12.00;99.90;;;;;;5036551;28;21014;-72
2022/01/18 12:58:20;;;;;;;10.33;7.87;;;12.00;99.90;;;;;;5035357;28;20474;-73
2022/01/18 13:00:48;;;;;;;12.07;7.83;;;12.10;99.60;;;;;;5041401;28;20421;-72
2022/01/18 13:03:33;;;;;;;11.07;7.53;;;12.10;99.20;;;;;;5032805;28;20519;-72
2022/01/18 13:06:01;;;;;;;16.40;9.90;;;12.20;99.20;;;;;;5050903;28;20445;-72
2022/01/18 13:08:47;;;;;;;16.73;8.30;;;12.20;99.10;;;;;;5038882;28;20418;-72
2022/01/18 13:11:18;;;;;;;12.77;7.47;;;12.30;98.70;;;;;;5000681;28;20465;-73
2022/01/18 13:13:52;;;;;;;12.53;9.17;;;12.20;98.30;;;;;;5044691;28;20416;-72
2022/01/18 13:25:02;;;;;;;12.30;6.20;;;12.00;98.50;;;;;;5034529;28;20401;-73
2022/01/18 13:27:29;;;;;;;11.23;6.40;;;11.90;97.70;;;;;;5033977;28;20424;-73
2022/01/18 13:30:10;;;;;;;14.13;7.87;;;12.00;97.90;;;;;;5018638;28;20417;-73
2022/01/18 13:32:37;;;;;;;10.10;7.47;;;11.90;98.00;;;;;;5017274;28;20408;-73
2022/01/18 13:35:05;;;;;;;11.77;7.57;;;11.90;98.40;;;;;;5017365;28;20428;-79
2022/01/18 13:37:33;;;;;;;11.93;7.10;;;11.90;98.70;;;;;;5034366;28;20429;-68
2022/01/18 13:40:15;;;;;;;11.63;7.53;;;11.90;98.70;;;;;;5043286;28;20425;-75
2022/01/18 13:42:49;;;;;;;11.77;7.77;;;11.80;99.20;;;;;;5055352;28;20569;-69
2022/01/18 13:45:24;;;;;;;13.07;8.50;;;11.80;99.20;;;;;;5034414;28;20416;-70
2022/01/18 13:47:56;;;;;;;12.27;7.80;;;11.80;99.50;;;;;;5036724;28;20281;-69
2022/01/18 13:50:34;;;;;;;12.57;7.63;;;11.80;99.50;;;;;;5053226;28;20431;-69
2022/01/18 13:53:06;;;;;;;11.43;8.30;;;11.80;99.30;;;;;;5054555;28;20412;-69
2022/01/18 13:55:34;;;;;;;10.40;8.27;;;11.80;99.20;;;;;;5035942;28;20928;-68
2022/01/18 13:58:01;;;;;;;11.37;7.60;;;11.80;99.20;;;;;;5038432;28;20483;-68
2022/01/18 14:00:29;;;;;;;10.40;7.20;;;11.80;98.80;;;;;;5033741;28;20405;-67
2022/01/18 14:02:55;;;;;;;10.30;7.27;;;11.80;98.90;;;;;;5039176;28;20518;-68
2022/01/18 14:05:23;;;;;;;11.73;7.00;;;11.70;99.20;;;;;;5016886;28;20480;-68
2022/01/18 14:07:59;;;;;;;11.23;7.10;;;11.70;99.00;;;;;;5034505;28;20459;-68
2022/01/18 14:10:25;;;;;;;12.27;7.27;;;11.70;98.90;;;;;;5033089;28;20417;-68